Time;durP1;ratioP1;P1;durP2;ratioP2;P2;SDS_P1;SDS_P2;PMS_P1;PMS_P2;Temp;Humidity;BMP_temperature;BMP_pressure;BME280_temperature;BME280_humidity;BME280_pressure;Samples;Min_cycle;Max_cycle;Signal;HPM_P1;HPM_P2
2024/01/31 01:45:32;;;;;;;;;;;;;;;3.23;47.88;101541.16;6041620;22;19947;-88
2024/01/31 05:23:01;;;;;;;;;;;;;;;2.57;48.86;101485.53;6022804;23;19998;-83
2024/01/31 08:33:10;;;;;;;;;;;;;;;3.54;47.27;101488.09;5379097;23;19910;-84
2024/01/31 08:35:36;;;;;;;;;;;;;;;3.56;47.18;101482.81;5000324;28;19910;-84
2024/01/31 08:38:01;;;;;;;;;;;;;;;3.58;48.29;101481.78;5000166;28;19906;-85
2024/01/31 08:40:27;;;;;;;;;;;;;;;3.69;47.50;101487.25;5000476;28;19934;-83
2024/01/31 08:42:58;;;;;;;;;;;;;;;3.77;47.68;101479.84;4983902;28;19907;-86
2024/01/31 08:45:23;;;;;;;;;;;;;;;3.76;47.35;101482.56;5000146;28;20003;-84
2024/01/31 08:50:47;;;;;;;;;;;;;;;3.91;47.27;101484.28;6100277;23;19946;-83
2024/01/31 08:53:13;;;;;;;;;;;;;;;4.01;46.91;101482.84;4982727;28;19933;-84
2024/01/31 08:55:38;;;;;;;;;;;;;;;4.07;47.04;101482.47;5231703;23;19961;-86
2024/01/31 08:58:05;;;;;;;;;;;;;;;4.10;47.08;101477.06;5000043;28;19930;-85
2024/01/31 09:00:30;;;;;;;;;;;;;;;4.11;46.20;101476.13;4983429;28;19913;-84
2024/01/31 09:02:56;;;;;;;;;;;;;;;4.17;46.02;101476.72;4999955;28;19906;-85
2024/01/31 09:05:22;;;;;;;;;;;;;;;4.17;46.27;101474.94;5000067;28;19942;-86
2024/01/31 09:07:47;;;;;;;;;;;;;;;4.18;45.68;101467.94;4999210;28;19906;-85
2024/01/31 09:10:13;;;;;;;;;;;;;;;4.27;45.37;101467.41;4999071;28;19906;-86
2024/01/31 09:13:16;;;;;;;;;;;;;;;4.29;45.35;101461.16;4965785;28;19906;-87
2024/01/31 09:18:29;;;;;;;;;;;;;;;4.47;45.82;101454.84;5179687;23;19909;-85
2024/01/31 09:20:54;;;;;;;;;;;;;;;4.53;45.41;101447.56;5004416;28;19933;-84
2024/01/31 09:26:23;;;;;;;;;;;;;;;4.74;46.03;101441.88;5008305;28;19928;-86
2024/01/31 09:28:50;;;;;;;;;;;;;;;4.81;45.05;101438.88;4976129;28;19913;-86
2024/01/31 09:34:18;;;;;;;;;;;;;;;4.83;45.43;101430.00;4997270;28;19988;-87
2024/01/31 09:36:45;;;;;;;;;;;;;;;4.88;45.63;101427.09;4974874;28;20390;-87
2024/01/31 09:39:10;;;;;;;;;;;;;;;4.88;45.85;101420.06;4975389;28;19914;-89
2024/01/31 09:41:36;;;;;;;;;;;;;;;5.01;45.62;101417.53;4979768;28;20011;-86
2024/01/31 09:44:02;;;;;;;;;;;;;;;5.06;44.67;101421.53;4966968;28;19918;-88
2024/01/31 09:46:29;;;;;;;;;;;;;;;5.14;44.93;101423.66;4966914;28;19921;-87
2024/01/31 09:48:54;;;;;;;;;;;;;;;5.13;44.69;101424.59;4974592;28;19941;-89
2024/01/31 09:51:20;;;;;;;;;;;;;;;5.21;45.12;101408.44;4978640;28;19940;-89
2024/01/31 09:53:48;;;;;;;;;;;;;;;5.25;45.10;101407.31;4977264;28;20008;-89
2024/01/31 09:56:14;;;;;;;;;;;;;;;5.36;44.44;101404.84;4970199;28;19980;-91
2024/01/31 09:58:39;;;;;;;;;;;;;;;5.39;44.56;101402.84;4996184;28;19957;-89
2024/01/31 10:01:06;;;;;;;;;;;;;;;5.48;43.96;101397.97;4978743;28;19918;-90
2024/01/31 10:03:31;;;;;;;;;;;;;;;5.59;43.98;101390.25;4977460;28;19920;-89
2024/01/31 10:05:56;;;;;;;;;;;;;;;5.61;42.78;101394.44;4975240;28;20016;-89
2024/01/31 10:08:22;;;;;;;;;;;;;;;5.63;43.63;101389.09;4959136;28;20434;-89
2024/01/31 10:10:48;;;;;;;;;;;;;;;5.69;42.65;101388.69;4991444;28;19960;-89
2024/01/31 10:13:13;;;;;;;;;;;;;;;5.78;42.81;101382.84;4978199;28;19910;-89
2024/01/31 10:15:39;;;;;;;;;;;;;;;5.81;42.70;101371.31;4982413;28;19945;-90
2024/01/31 10:18:04;;;;;;;;;;;;;;;5.88;42.13;101368.16;4955743;28;20010;-90
2024/01/31 10:20:30;;;;;;;;;;;;;;;5.90;41.51;101368.09;4966724;28;19922;-89
2024/01/31 10:22:57;;;;;;;;;;;;;;;5.93;42.00;101347.75;4976426;28;19914;-90
2024/01/31 10:25:24;;;;;;;;;;;;;;;6.02;41.19;101352.41;4976231;28;20022;-89
2024/01/31 10:27:51;;;;;;;;;;;;;;;6.08;40.78;101356.38;4976265;28;19958;-89
2024/01/31 10:30:17;;;;;;;;;;;;;;;6.05;40.40;101346.13;4969955;28;19918;-90
2024/01/31 10:32:43;;;;;;;;;;;;;;;6.15;41.72;101344.53;4971580;28;19922;-90
2024/01/31 10:35:10;;;;;;;;;;;;;;;6.08;40.31;101340.66;4971458;28;20395;-89
2024/01/31 10:37:36;;;;;;;;;;;;;;;6.20;40.70;101333.72;4971048;28;19997;-91
2024/01/31 10:40:04;;;;;;;;;;;;;;;6.16;40.87;101340.13;4974828;28;20445;-90
2024/01/31 10:42:29;;;;;;;;;;;;;;;6.22;39.77;101334.47;4976378;28;19914;-88
2024/01/31 10:44:55;;;;;;;;;;;;;;;6.33;41.16;101332.78;4993574;28;19970;-88
2024/01/31 10:47:20;;;;;;;;;;;;;;;6.38;39.75;101319.34;4983387;28;19960;-89
2024/01/31 10:49:46;;;;;;;;;;;;;;;6.42;40.17;101317.34;4974867;28;19914;-90
2024/01/31 10:52:14;;;;;;;;;;;;;;;6.42;39.88;101310.31;4974669;28;19942;-91
2024/01/31 10:54:43;;;;;;;;;;;;;;;6.50;40.62;101315.84;4974761;28;19914;-89
2024/01/31 10:57:09;;;;;;;;;;;;;;;6.62;42.63;101311.50;4971929;28;19919;-90
2024/01/31 10:59:35;;;;;;;;;;;;;;;6.60;40.67;101316.88;4973777;28;19925;-89
2024/01/31 11:02:01;;;;;;;;;;;;;;;6.65;40.59;101306.03;4973248;28;19925;-89
2024/01/31 11:04:29;;;;;;;;;;;;;;;6.65;40.89;101304.25;4974194;28;19914;-89
2024/01/31 11:06:59;;;;;;;;;;;;;;;6.68;39.98;101311.91;4973895;28;19925;-88
2024/01/31 11:09:25;;;;;;;;;;;;;;;6.73;40.42;101297.66;4969400;28;20453;-89
2024/01/31 11:12:03;;;;;;;;;;;;;;;6.71;39.18;101310.88;4974922;28;19914;-91
2024/01/31 11:14:29;;;;;;;;;;;;;;;6.73;40.26;101298.50;4972382;28;20395;-91
2024/01/31 11:17:04;;;;;;;;;;;;;;;6.72;38.64;101290.72;4976234;28;19925;-90
2024/01/31 11:19:30;;;;;;;;;;;;;;;6.75;39.71;101288.72;4976967;28;19913;-89
2024/01/31 11:21:55;;;;;;;;;;;;;;;6.81;40.54;101295.31;4976987;28;19940;-89
2024/01/31 11:24:23;;;;;;;;;;;;;;;6.82;39.34;101287.31;4976543;28;20406;-89
2024/01/31 11:26:48;;;;;;;;;;;;;;;6.82;39.81;101282.06;4966064;28;19922;-89
2024/01/31 11:29:15;;;;;;;;;;;;;;;6.80;40.87;101280.50;4957551;28;19992;-89
2024/01/31 11:31:41;;;;;;;;;;;;;;;6.70;38.72;101275.09;4957745;28;19914;-89
2024/01/31 11:34:06;;;;;;;;;;;;;;;6.74;41.47;101273.91;4975068;28;19921;-90
2024/01/31 11:36:31;;;;;;;;;;;;;;;6.71;39.75;101274.13;4963876;28;19984;-90
2024/01/31 11:38:57;;;;;;;;;;;;;;;6.75;40.70;101265.09;4975506;28;20418;-91
2024/01/31 11:41:22;;;;;;;;;;;;;;;6.72;40.38;101265.31;4976438;28;19914;-91
2024/01/31 11:43:48;;;;;;;;;;;;;;;6.72;39.17;101259.22;4993943;28;19920;-91
2024/01/31 11:46:14;;;;;;;;;;;;;;;6.77;40.19;101257.09;4970083;28;19923;-91
2024/01/31 11:48:39;;;;;;;;;;;;;;;6.76;40.86;101255.44;4975365;28;19918;-91
2024/01/31 11:51:05;;;;;;;;;;;;;;;6.80;41.34;101243.75;4976324;28;19972;-90
2024/01/31 11:53:30;;;;;;;;;;;;;;;6.79;41.30;101247.31;4993816;28;19924;-90
2024/01/31 11:55:55;;;;;;;;;;;;;;;6.78;40.13;101250.91;4975321;28;19918;-90
2024/01/31 11:58:21;;;;;;;;;;;;;;;6.73;39.29;101250.41;4992546;28;20284;-91
2024/01/31 12:00:46;;;;;;;;;;;;;;;6.67;39.62;101249.03;4981250;28;19917;-90
2024/01/31 12:03:12;;;;;;;;;;;;;;;6.61;38.91;101242.44;4976299;28;20004;-90
2024/01/31 12:05:37;;;;;;;;;;;;;;;6.64;39.81;101231.72;4959228;28;19930;-91
2024/01/31 12:08:02;;;;;;;;;;;;;;;6.66;38.68;101234.22;4962904;28;19922;-91
2024/01/31 12:10:28;;;;;;;;;;;;;;;6.66;38.88;101229.81;4956892;28;19914;-91
2024/01/31 12:12:55;;;;;;;;;;;;;;;6.66;40.43;101223.72;4972460;28;19922;-89
2024/01/31 12:15:21;;;;;;;;;;;;;;;6.61;38.44;101217.97;4957109;28;19922;-91
2024/01/31 12:17:46;;;;;;;;;;;;;;;6.61;39.69;101221.44;4960713;28;19929;-90
2024/01/31 12:20:12;;;;;;;;;;;;;;;6.64;40.11;101218.59;4982873;28;19914;-91
2024/01/31 12:22:38;;;;;;;;;;;;;;;6.65;38.60;101217.66;4976653;28;19924;-90
2024/01/31 12:25:04;;;;;;;;;;;;;;;6.64;40.06;101230.88;4969444;28;19922;-90
2024/01/31 12:27:30;;;;;;;;;;;;;;;6.62;37.80;101212.63;4994012;28;19922;-91
2024/01/31 12:29:56;;;;;;;;;;;;;;;6.62;39.17;101207.38;4977540;28;20379;-90
2024/01/31 12:32:22;;;;;;;;;;;;;;;6.64;39.70;101210.72;4970402;28;20323;-89
2024/01/31 12:34:47;;;;;;;;;;;;;;;6.68;40.30;101204.28;4973900;28;19940;-90
2024/01/31 12:37:12;;;;;;;;;;;;;;;6.72;40.22;101197.06;4956388;28;20443;-90
2024/01/31 12:39:38;;;;;;;;;;;;;;;6.71;38.64;101199.81;4958176;28;20334;-90
2024/01/31 12:42:07;;;;;;;;;;;;;;;6.67;37.49;101197.38;4974512;28;19941;-91
2024/01/31 12:44:32;;;;;;;;;;;;;;;6.72;38.99;101196.22;4989954;28;19925;-90
2024/01/31 12:46:58;;;;;;;;;;;;;;;6.75;39.88;101196.00;4975226;28;20365;-90
2024/01/31 12:49:23;;;;;;;;;;;;;;;6.77;38.90;101189.69;4970267;28;20403;-90
2024/01/31 12:51:51;;;;;;;;;;;;;;;6.76;38.75;101192.44;4975355;28;20005;-90
2024/01/31 12:54:17;;;;;;;;;;;;;;;6.76;37.79;101192.44;4967901;28;19918;-90
2024/01/31 12:56:42;;;;;;;;;;;;;;;6.77;37.67;101199.34;4971148;28;19924;-91
2024/01/31 12:59:10;;;;;;;;;;;;;;;6.79;39.22;101186.94;4988641;28;19940;-91
2024/01/31 13:01:35;;;;;;;;;;;;;;;6.80;38.77;101189.47;4973807;28;19922;-90
2024/01/31 13:04:01;;;;;;;;;;;;;;;6.80;38.48;101189.47;4971529;28;19925;-90
2024/01/31 13:06:26;;;;;;;;;;;;;;;6.77;36.56;101180.97;4964859;28;19922;-89
2024/01/31 13:08:51;;;;;;;;;;;;;;;6.79;38.16;101187.78;4957007;28;19914;-90
2024/01/31 13:11:17;;;;;;;;;;;;;;;6.80;38.55;101186.84;4956847;28;19925;-90
2024/01/31 13:13:47;;;;;;;;;;;;;;;6.85;39.29;101186.50;4956168;28;19968;-90
2024/01/31 13:16:13;;;;;;;;;;;;;;;6.88;40.52;101181.84;4956074;28;19921;-90
2024/01/31 13:18:38;;;;;;;;;;;;;;;6.87;38.06;101182.81;4962903;28;20406;-90
2024/01/31 13:21:04;;;;;;;;;;;;;;;6.87;39.12;101181.97;4974403;28;19922;-91
2024/01/31 13:23:29;;;;;;;;;;;;;;;6.89;38.63;101177.44;4974742;28;19920;-89
2024/01/31 13:25:54;;;;;;;;;;;;;;;6.93;37.77;101168.38;4978395;28;19921;-89
2024/01/31 13:28:20;;;;;;;;;;;;;;;6.97;38.67;101168.03;4993927;28;19932;-90
2024/01/31 13:30:45;;;;;;;;;;;;;;;7.01;38.91;101166.00;4979008;28;19921;-91
2024/01/31 13:33:11;;;;;;;;;;;;;;;7.04;38.82;101162.31;4978743;28;19957;-92
2024/01/31 13:35:37;;;;;;;;;;;;;;;7.04;38.03;101157.06;4996592;28;20000;-91
2024/01/31 13:38:02;;;;;;;;;;;;;;;7.07;38.63;101147.16;4995755;28;20405;-90
2024/01/31 13:40:28;;;;;;;;;;;;;;;7.08;38.28;101151.47;4964155;28;19956;-91
2024/01/31 13:42:55;;;;;;;;;;;;;;;7.08;36.72;101158.50;4959437;28;19914;-91
2024/01/31 13:45:20;;;;;;;;;;;;;;;7.05;37.31;101156.13;4960870;28;19918;-91
2024/01/31 13:47:46;;;;;;;;;;;;;;;7.08;39.30;101153.25;4959389;28;20314;-91
2024/01/31 13:50:11;;;;;;;;;;;;;;;7.10;37.94;101153.97;4967775;28;19922;-92
2024/01/31 13:52:36;;;;;;;;;;;;;;;7.13;37.76;101153.75;4997577;28;19977;-91
2024/01/31 13:55:02;;;;;;;;;;;;;;;7.11;36.98;101153.03;4988554;28;19931;-91
2024/01/31 13:57:27;;;;;;;;;;;;;;;7.12;37.59;101145.03;4973053;28;19918;-92
2024/01/31 13:59:53;;;;;;;;;;;;;;;7.14;38.00;101143.13;4961584;28;19914;-91
2024/01/31 14:02:18;;;;;;;;;;;;;;;7.14;37.89;101155.41;4976792;28;20004;-92
2024/01/31 14:04:43;;;;;;;;;;;;;;;7.18;38.63;101152.44;4965075;28;20339;-91
2024/01/31 14:07:09;;;;;;;;;;;;;;;7.16;37.11;101145.63;4981620;28;19922;-91
2024/01/31 14:09:34;;;;;;;;;;;;;;;7.18;38.25;101147.19;4976767;28;19921;-91
2024/01/31 14:12:01;;;;;;;;;;;;;;;7.20;37.90;101141.81;4995982;28;19914;-91
2024/01/31 14:14:26;;;;;;;;;;;;;;;7.22;38.77;101143.38;4978532;28;19910;-91
2024/01/31 14:16:52;;;;;;;;;;;;;;;7.19;36.70;101140.16;4977273;28;20432;-91
2024/01/31 14:19:17;;;;;;;;;;;;;;;7.17;37.89;101148.13;4977821;28;19918;-91
2024/01/31 14:21:42;;;;;;;;;;;;;;;7.16;38.15;101143.84;4978243;28;20402;-91
2024/01/31 14:24:07;;;;;;;;;;;;;;;7.09;37.06;101141.78;4978047;28;19993;-91
2024/01/31 14:26:33;;;;;;;;;;;;;;;7.06;37.89;101142.03;4974701;28;19979;-92
2024/01/31 14:28:58;;;;;;;;;;;;;;;7.08;37.83;101140.97;4958903;28;19968;-91
2024/01/31 14:31:23;;;;;;;;;;;;;;;7.07;37.48;101135.81;4972868;28;19918;-91
2024/01/31 14:33:49;;;;;;;;;;;;;;;7.05;36.94;101135.94;4995629;28;20065;-91
2024/01/31 14:36:14;;;;;;;;;;;;;;;7.07;38.58;101130.56;4976787;28;19917;-91
2024/01/31 14:38:39;;;;;;;;;;;;;;;7.08;38.20;101127.00;4969672;28;21390;-92
2024/01/31 14:41:05;;;;;;;;;;;;;;;7.10;38.02;101132.97;4991397;28;19930;-92
2024/01/31 14:43:30;;;;;;;;;;;;;;;7.07;37.07;101131.41;4977116;28;19922;-92
2024/01/31 14:45:55;;;;;;;;;;;;;;;7.07;37.92;101130.56;4994918;28;19918;-91
2024/01/31 14:48:21;;;;;;;;;;;;;;;7.06;38.42;101129.75;4970697;28;19918;-91
2024/01/31 14:50:47;;;;;;;;;;;;;;;7.04;37.89;101134.28;4966209;28;20296;-90
2024/01/31 14:53:12;;;;;;;;;;;;;;;7.03;38.58;101135.22;4977191;28;19918;-91
2024/01/31 14:55:37;;;;;;;;;;;;;;;7.01;36.87;101140.59;4972343;28;20004;-90
2024/01/31 14:58:03;;;;;;;;;;;;;;;7.00;39.43;101133.66;4971233;28;20376;-91
2024/01/31 15:00:28;;;;;;;;;;;;;;;6.98;37.93;101134.72;4995235;28;19918;-91
2024/01/31 15:02:53;;;;;;;;;;;;;;;6.93;36.93;101137.72;4977580;28;19914;-90
2024/01/31 15:05:19;;;;;;;;;;;;;;;6.91;37.59;101136.16;4963215;28;19954;-89
2024/01/31 15:07:44;;;;;;;;;;;;;;;6.85;37.79;101129.56;4969226;28;19918;-91
2024/01/31 15:10:10;;;;;;;;;;;;;;;6.86;37.73;101131.25;4976211;28;20453;-91
2024/01/31 15:12:35;;;;;;;;;;;;;;;6.86;38.50;101125.16;4974815;28;19922;-91
2024/01/31 15:15:01;;;;;;;;;;;;;;;6.86;38.75;101128.63;4991341;28;20040;-90
2024/01/31 15:17:27;;;;;;;;;;;;;;;6.86;39.81;101131.25;4992080;28;19975;-90
2024/01/31 15:19:52;;;;;;;;;;;;;;;6.87;39.08;101126.84;4972694;28;19918;-90
2024/01/31 15:22:18;;;;;;;;;;;;;;;6.87;39.16;101121.59;4982291;28;19926;-90
2024/01/31 15:24:44;;;;;;;;;;;;;;;6.86;38.88;101122.53;4976640;28;19971;-90
2024/01/31 15:27:10;;;;;;;;;;;;;;;6.83;39.46;101123.59;4974907;28;19921;-88
2024/01/31 15:29:35;;;;;;;;;;;;;;;6.82;39.31;101127.19;4962868;28;19928;-89
2024/01/31 15:32:00;;;;;;;;;;;;;;;6.79;39.35;101127.41;4967517;28;20398;-89
2024/01/31 15:34:26;;;;;;;;;;;;;;;6.78;39.14;101130.16;4985561;28;20005;-89
2024/01/31 15:36:53;;;;;;;;;;;;;;;6.69;39.81;101122.00;4970212;28;19917;-90
2024/01/31 15:39:22;;;;;;;;;;;;;;;6.62;39.84;101128.63;4975676;28;19921;-90
2024/01/31 15:41:47;;;;;;;;;;;;;;;6.55;40.46;101123.97;4967273;28;19925;-90
2024/01/31 15:44:14;;;;;;;;;;;;;;;6.48;40.16;101120.94;4973094;28;19918;-90
2024/01/31 15:46:40;;;;;;;;;;;;;;;6.44;40.50;101122.13;4975507;28;19917;-89
2024/01/31 15:49:05;;;;;;;;;;;;;;;6.41;40.74;101150.38;4986222;28;20040;-90
2024/01/31 15:51:40;;;;;;;;;;;;;;;6.36;41.51;101130.56;4970911;28;19989;-91
2024/01/31 15:54:06;;;;;;;;;;;;;;;6.30;41.34;101128.38;4960725;28;20389;-90
2024/01/31 15:56:31;;;;;;;;;;;;;;;6.25;40.73;101124.41;4972060;28;20001;-91
2024/01/31 15:58:57;;;;;;;;;;;;;;;6.19;41.46;101132.72;4971552;28;20460;-90
2024/01/31 16:01:22;;;;;;;;;;;;;;;6.13;41.31;101136.63;4983584;28;19973;-90
2024/01/31 16:03:47;;;;;;;;;;;;;;;6.07;41.49;101138.88;4974053;28;19914;-89
2024/01/31 16:06:17;;;;;;;;;;;;;;;5.97;41.48;101139.53;4956688;28;20314;-92
2024/01/31 16:08:43;;;;;;;;;;;;;;;5.90;41.39;101147.91;4964762;28;19917;-91
2024/01/31 16:11:08;;;;;;;;;;;;;;;5.86;42.27;101141.16;4984734;28;19918;-90
2024/01/31 16:13:33;;;;;;;;;;;;;;;5.83;41.73;101139.59;4962982;28;19917;-90
2024/01/31 16:15:59;;;;;;;;;;;;;;;5.77;42.06;101136.56;4977305;28;20342;-89
2024/01/31 16:18:28;;;;;;;;;;;;;;;5.72;42.29;101132.50;4964151;28;19923;-90
2024/01/31 16:20:54;;;;;;;;;;;;;;;5.69;42.61;101143.19;4971898;28;20414;-90
2024/01/31 16:23:22;;;;;;;;;;;;;;;5.65;42.41;101135.66;4972824;28;19906;-91
2024/01/31 16:25:47;;;;;;;;;;;;;;;5.57;42.42;101144.06;4972220;28;20005;-91
2024/01/31 16:28:12;;;;;;;;;;;;;;;5.06;42.79;101067.28;4972722;28;19921;-90
2024/01/31 16:30:37;;;;;;;;;;;;;;;5.50;42.74;101134.09;4972766;28;20364;-90
2024/01/31 16:33:03;;;;;;;;;;;;;;;5.45;43.22;101134.44;4972505;28;20008;-90
2024/01/31 16:35:28;;;;;;;;;;;;;;;5.44;43.16;101140.59;4972646;28;20410;-89
2024/01/31 16:37:54;;;;;;;;;;;;;;;5.40;42.83;101134.75;4973707;28;19906;-90
2024/01/31 16:40:19;;;;;;;;;;;;;;;5.36;43.05;101129.81;4972505;28;20408;-90
2024/01/31 16:42:44;;;;;;;;;;;;;;;5.33;43.49;101140.50;4972477;28;20010;-90
2024/01/31 16:45:10;;;;;;;;;;;;;;;5.34;43.43;101134.34;4973569;28;19952;-90
2024/01/31 16:47:35;;;;;;;;;;;;;;;5.36;43.46;101138.53;4972434;28;19928;-89
2024/01/31 16:50:01;;;;;;;;;;;;;;;5.39;43.38;101134.84;4972448;28;20347;-89
2024/01/31 16:52:26;;;;;;;;;;;;;;;5.36;43.58;101142.91;4973431;28;19914;-90
2024/01/31 16:54:52;;;;;;;;;;;;;;;5.33;43.92;101153.59;4972062;28;19914;-90
2024/01/31 16:57:17;;;;;;;;;;;;;;;5.30;43.76;101148.56;4972432;28;19914;-89
2024/01/31 16:59:42;;;;;;;;;;;;;;;5.22;43.84;101149.09;4972058;28;19915;-90
2024/01/31 17:02:08;;;;;;;;;;;;;;;5.20;43.76;101163.22;4973372;28;19921;-90
2024/01/31 17:04:34;;;;;;;;;;;;;;;5.15;44.07;101165.31;4971994;28;20296;-89
2024/01/31 17:06:59;;;;;;;;;;;;;;;5.14;43.68;101161.84;4977182;28;20323;-88
2024/01/31 17:09:24;;;;;;;;;;;;;;;5.10;43.94;101148.13;4997309;28;19918;-87
2024/01/31 17:11:51;;;;;;;;;;;;;;;5.07;43.59;101150.13;4980569;28;19911;-88
2024/01/31 17:14:16;;;;;;;;;;;;;;;4.98;43.62;101156.81;4973964;28;20012;-89
2024/01/31 17:16:42;;;;;;;;;;;;;;;4.95;43.56;101156.16;4973451;28;19958;-89
2024/01/31 17:19:08;;;;;;;;;;;;;;;4.88;43.50;101158.34;4975713;28;19914;-88
2024/01/31 17:21:33;;;;;;;;;;;;;;;4.86;43.87;101159.41;4975259;28;20287;-88
2024/01/31 17:23:59;;;;;;;;;;;;;;;4.84;44.26;101149.03;4975270;28;19960;-88
2024/01/31 17:26:24;;;;;;;;;;;;;;;4.80;44.16;101144.94;4975037;28;20009;-90
2024/01/31 17:28:49;;;;;;;;;;;;;;;4.75;44.44;101144.41;4975198;28;19984;-88
2024/01/31 17:31:14;;;;;;;;;;;;;;;4.75;44.53;101145.25;4975167;28;19917;-88
2024/01/31 17:33:40;;;;;;;;;;;;;;;4.73;44.30;101147.13;4975133;28;19910;-89
2024/01/31 17:36:09;;;;;;;;;;;;;;;4.66;44.43;101148.47;4975176;28;19918;-88
2024/01/31 17:38:34;;;;;;;;;;;;;;;4.65;44.80;101140.72;4992955;28;19996;-89
2024/01/31 17:40:59;;;;;;;;;;;;;;;4.61;44.69;101150.56;4975215;28;20016;-87
2024/01/31 17:43:26;;;;;;;;;;;;;;;4.58;45.07;101149.91;4992637;28;19910;-86
2024/01/31 17:45:52;;;;;;;;;;;;;;;4.52;44.63;101150.31;4975276;28;19918;-87
2024/01/31 17:48:18;;;;;;;;;;;;;;;4.46;44.60;101143.72;4994241;28;20402;-87
2024/01/31 17:50:43;;;;;;;;;;;;;;;4.44;44.96;101151.63;4981123;28;19914;-86
2024/01/31 17:56:31;;;;;;;;;;;;;;;4.35;43.76;101167.06;5007430;28;19912;-86
2024/01/31 21:32:24;;;;;;;;;;;;;;;1.56;46.57;101087.88;5588067;23;20061;-83
2024/01/31 22:25:11;;;;;;;;;;;;;;;1.18;47.34;101045.66;5465873;23;20350;-84
2024/01/31 22:27:39;;;;;;;;;;;;;;;1.14;47.33;101053.72;5001572;28;19969;-84
2024/01/31 22:52:43;;;;;;;;;;;;;;;0.98;47.53;101030.28;5261907;23;19914;-83
2024/01/31 22:55:09;;;;;;;;;;;;;;;0.98;47.41;101032.03;5156989;23;19922;-83
2024/01/31 23:15:40;;;;;;;;;;;;;;;1.01;47.51;101027.50;5133250;23;19910;-83
2024/01/31 23:18:07;;;;;;;;;;;;;;;0.96;47.47;101024.31;5279510;23;19921;-84
2024/01/31 23:20:33;;;;;;;;;;;;;;;0.84;47.75;101024.94;5000066;28;19986;-83
2024/01/31 23:47:46;;;;;;;;;;;;;;;0.34;48.13;100997.16;5820255;23;19941;-83
